sensor_id;sensor_type;location;lat;lon;timestamp;temperature;humidity
59855;DHT22;45732;52.850;6.896;2023-09-19T00:00:23;15.80;99.90
59855;DHT22;45732;52.850;6.896;2023-09-19T00:02:58;15.80;99.90
59855;DHT22;45732;52.850;6.896;2023-09-19T00:05:28;15.80;99.90
59855;DHT22;45732;52.850;6.896;2023-09-19T00:07:56;15.80;99.90
59855;DHT22;45732;52.850;6.896;2023-09-19T00:10:24;15.80;99.90
59855;DHT22;45732;52.850;6.896;2023-09-19T00:12:53;15.70;99.90
59855;DHT22;45732;52.850;6.896;2023-09-19T00:15:22;15.70;99.90
59855;DHT22;45732;52.850;6.896;2023-09-19T00:17:48;15.60;99.90
59855;DHT22;45732;52.850;6.896;2023-09-19T00:20:14;15.60;99.90
59855;DHT22;45732;52.850;6.896;2023-09-19T00:22:44;15.60;99.90
59855;DHT22;45732;52.850;6.896;2023-09-19T00:25:10;15.50;99.90
59855;DHT22;45732;52.850;6.896;2023-09-19T00:27:40;15.50;99.90
59855;DHT22;45732;52.850;6.896;2023-09-19T00:30:09;15.50;99.90
59855;DHT22;45732;52.850;6.896;2023-09-19T00:32:50;15.50;99.90
59855;DHT22;45732;52.850;6.896;2023-09-19T00:35:22;15.40;99.90
59855;DHT22;45732;52.850;6.896;2023-09-19T00:37:51;15.40;99.90
59855;DHT22;45732;52.850;6.896;2023-09-19T00:40:17;15.40;99.90
59855;DHT22;45732;52.850;6.896;2023-09-19T00:42:46;15.20;99.90
59855;DHT22;45732;52.850;6.896;2023-09-19T00:45:15;15.20;99.90
59855;DHT22;45732;52.850;6.896;2023-09-19T00:47:46;15.20;99.90
59855;DHT22;45732;52.850;6.896;2023-09-19T00:50:19;15.10;99.90
59855;DHT22;45732;52.850;6.896;2023-09-19T00:52:47;15.10;99.90
59855;DHT22;45732;52.850;6.896;2023-09-19T00:55:15;15.00;99.90
59855;DHT22;45732;52.850;6.896;2023-09-19T00:57:42;15.00;99.90
59855;DHT22;45732;52.850;6.896;2023-09-19T01:00:10;15.00;99.90
59855;DHT22;45732;52.850;6.896;2023-09-19T01:02:37;14.90;99.90
59855;DHT22;45732;52.850;6.896;2023-09-19T01:05:03;14.90;99.90
59855;DHT22;45732;52.850;6.896;2023-09-19T01:07:32;14.90;99.90
59855;DHT22;45732;52.850;6.896;2023-09-19T01:10:00;14.90;99.90
59855;DHT22;45732;52.850;6.896;2023-09-19T01:12:36;14.90;99.90
59855;DHT22;45732;52.850;6.896;2023-09-19T01:18:03;14.90;99.90
59855;DHT22;45732;52.850;6.896;2023-09-19T01:23:11;14.90;99.90
59855;DHT22;45732;52.850;6.896;2023-09-19T01:28:52;14.90;99.90
59855;DHT22;45732;52.850;6.896;2023-09-19T01:31:20;14.80;99.90
59855;DHT22;45732;52.850;6.896;2023-09-19T01:34:00;14.90;99.90
59855;DHT22;45732;52.850;6.896;2023-09-19T01:36:34;14.90;99.90
59855;DHT22;45732;52.850;6.896;2023-09-19T01:39:04;14.90;99.90
59855;DHT22;45732;52.850;6.896;2023-09-19T01:44:12;14.80;99.90
59855;DHT22;45732;52.850;6.896;2023-09-19T01:46:41;14.80;99.90
59855;DHT22;45732;52.850;6.896;2023-09-19T01:52:02;14.70;99.90
59855;DHT22;45732;52.850;6.896;2023-09-19T01:54:40;14.70;99.90
59855;DHT22;45732;52.850;6.896;2023-09-19T01:57:17;14.80;99.90
59855;DHT22;45732;52.850;6.896;2023-09-19T01:59:54;14.70;99.90
59855;DHT22;45732;52.850;6.896;2023-09-19T02:02:23;14.70;99.90
59855;DHT22;45732;52.850;6.896;2023-09-19T02:04:50;14.60;99.90
59855;DHT22;45732;52.850;6.896;2023-09-19T02:07:17;14.60;99.90
59855;DHT22;45732;52.850;6.896;2023-09-19T02:09:42;14.60;99.90
59855;DHT22;45732;52.850;6.896;2023-09-19T02:12:11;14.60;99.90
59855;DHT22;45732;52.850;6.896;2023-09-19T02:14:37;14.50;99.90
59855;DHT22;45732;52.850;6.896;2023-09-19T02:17:03;14.50;99.90
59855;DHT22;45732;52.850;6.896;2023-09-19T02:19:35;14.50;99.90
59855;DHT22;45732;52.850;6.896;2023-09-19T02:22:01;14.50;99.90
59855;DHT22;45732;52.850;6.896;2023-09-19T02:24:33;14.50;99.90
59855;DHT22;45732;52.850;6.896;2023-09-19T02:26:59;14.50;99.90
59855;DHT22;45732;52.850;6.896;2023-09-19T02:29:29;14.50;99.90
59855;DHT22;45732;52.850;6.896;2023-09-19T02:31:55;14.50;99.90
59855;DHT22;45732;52.850;6.896;2023-09-19T02:34:22;14.50;99.90
59855;DHT22;45732;52.850;6.896;2023-09-19T02:36:47;14.40;99.90
59855;DHT22;45732;52.850;6.896;2023-09-19T02:39:13;14.50;99.90
59855;DHT22;45732;52.850;6.896;2023-09-19T02:41:39;14.40;99.90
59855;DHT22;45732;52.850;6.896;2023-09-19T02:44:05;14.40;99.90
59855;DHT22;45732;52.850;6.896;2023-09-19T02:46:34;14.40;99.90
59855;DHT22;45732;52.850;6.896;2023-09-19T02:49:02;14.40;99.90
59855;DHT22;45732;52.850;6.896;2023-09-19T02:51:29;14.30;99.90
59855;DHT22;45732;52.850;6.896;2023-09-19T02:53:54;14.30;99.90
59855;DHT22;45732;52.850;6.896;2023-09-19T02:56:20;14.30;99.90
59855;DHT22;45732;52.850;6.896;2023-09-19T02:58:46;14.30;99.90
59855;DHT22;45732;52.850;6.896;2023-09-19T03:01:13;14.30;99.90
59855;DHT22;45732;52.850;6.896;2023-09-19T03:03:40;14.30;99.90
59855;DHT22;45732;52.850;6.896;2023-09-19T03:06:06;14.20;99.90
59855;DHT22;45732;52.850;6.896;2023-09-19T03:08:35;14.20;99.90
59855;DHT22;45732;52.850;6.896;2023-09-19T03:11:05;14.20;99.90
59855;DHT22;45732;52.850;6.896;2023-09-19T03:13:32;14.20;99.90
59855;DHT22;45732;52.850;6.896;2023-09-19T03:15:58;14.20;99.90
59855;DHT22;45732;52.850;6.896;2023-09-19T03:18:24;14.10;99.90
59855;DHT22;45732;52.850;6.896;2023-09-19T03:20:55;14.20;99.90
59855;DHT22;45732;52.850;6.896;2023-09-19T03:23:22;14.10;99.90
59855;DHT22;45732;52.850;6.896;2023-09-19T03:25:48;14.10;99.90
59855;DHT22;45732;52.850;6.896;2023-09-19T03:28:14;14.10;99.90
59855;DHT22;45732;52.850;6.896;2023-09-19T03:30:41;14.10;99.90
59855;DHT22;45732;52.850;6.896;2023-09-19T03:33:07;14.10;99.90
59855;DHT22;45732;52.850;6.896;2023-09-19T03:35:33;14.10;99.90
59855;DHT22;45732;52.850;6.896;2023-09-19T03:38:00;14.10;99.90
59855;DHT22;45732;52.850;6.896;2023-09-19T03:40:25;14.10;99.90
59855;DHT22;45732;52.850;6.896;2023-09-19T03:42:51;14.10;99.90
59855;DHT22;45732;52.850;6.896;2023-09-19T03:45:17;14.10;99.90
59855;DHT22;45732;52.850;6.896;2023-09-19T03:47:43;14.10;99.90
59855;DHT22;45732;52.850;6.896;2023-09-19T03:50:10;14.10;99.90
59855;DHT22;45732;52.850;6.896;2023-09-19T03:52:36;14.10;99.90
59855;DHT22;45732;52.850;6.896;2023-09-19T03:55:02;14.20;99.90
59855;DHT22;45732;52.850;6.896;2023-09-19T03:57:30;14.20;99.90
59855;DHT22;45732;52.850;6.896;2023-09-19T03:59:56;14.20;99.90
59855;DHT22;45732;52.850;6.896;2023-09-19T04:02:22;14.20;99.90
59855;DHT22;45732;52.850;6.896;2023-09-19T04:04:51;14.30;99.90
59855;DHT22;45732;52.850;6.896;2023-09-19T04:07:18;14.30;99.90
59855;DHT22;45732;52.850;6.896;2023-09-19T04:09:48;14.30;99.90
59855;DHT22;45732;52.850;6.896;2023-09-19T04:12:14;14.20;99.90
59855;DHT22;45732;52.850;6.896;2023-09-19T04:14:42;14.30;99.90
59855;DHT22;45732;52.850;6.896;2023-09-19T04:17:08;14.20;99.90
59855;DHT22;45732;52.850;6.896;2023-09-19T04:19:35;14.20;99.90
59855;DHT22;45732;52.850;6.896;2023-09-19T04:22:01;14.20;99.90
59855;DHT22;45732;52.850;6.896;2023-09-19T04:24:26;14.30;99.90
59855;DHT22;45732;52.850;6.896;2023-09-19T04:26:52;14.30;99.90
59855;DHT22;45732;52.850;6.896;2023-09-19T04:29:18;14.30;99.90
59855;DHT22;45732;52.850;6.896;2023-09-19T04:31:44;14.30;99.90
59855;DHT22;45732;52.850;6.896;2023-09-19T04:34:11;14.30;99.90
59855;DHT22;45732;52.850;6.896;2023-09-19T04:36:43;14.30;99.90
59855;DHT22;45732;52.850;6.896;2023-09-19T04:39:09;14.30;99.90
59855;DHT22;45732;52.850;6.896;2023-09-19T04:41:36;14.30;99.90
59855;DHT22;45732;52.850;6.896;2023-09-19T04:44:05;14.30;99.90
59855;DHT22;45732;52.850;6.896;2023-09-19T04:46:31;14.40;99.90
59855;DHT22;45732;52.850;6.896;2023-09-19T04:48:56;14.30;99.90
59855;DHT22;45732;52.850;6.896;2023-09-19T04:51:23;14.40;99.90
59855;DHT22;45732;52.850;6.896;2023-09-19T04:53:49;14.40;99.90
59855;DHT22;45732;52.850;6.896;2023-09-19T04:56:14;14.40;99.90
59855;DHT22;45732;52.850;6.896;2023-09-19T04:58:40;14.40;99.90
59855;DHT22;45732;52.850;6.896;2023-09-19T05:01:06;14.40;99.90
59855;DHT22;45732;52.850;6.896;2023-09-19T05:03:37;14.40;99.90
59855;DHT22;45732;52.850;6.896;2023-09-19T05:06:09;14.40;99.90
59855;DHT22;45732;52.850;6.896;2023-09-19T05:08:35;14.50;99.90
59855;DHT22;45732;52.850;6.896;2023-09-19T05:11:03;14.40;99.90
59855;DHT22;45732;52.850;6.896;2023-09-19T05:13:29;14.40;99.90
59855;DHT22;45732;52.850;6.896;2023-09-19T05:16:00;14.40;99.90
59855;DHT22;45732;52.850;6.896;2023-09-19T05:18:27;14.40;99.90
59855;DHT22;45732;52.850;6.896;2023-09-19T05:20:53;14.40;99.90
59855;DHT22;45732;52.850;6.896;2023-09-19T05:23:20;14.50;99.90
59855;DHT22;45732;52.850;6.896;2023-09-19T05:25:46;14.40;99.90
59855;DHT22;45732;52.850;6.896;2023-09-19T05:28:12;14.40;99.90
59855;DHT22;45732;52.850;6.896;2023-09-19T05:30:40;14.40;99.90
59855;DHT22;45732;52.850;6.896;2023-09-19T05:33:08;14.40;99.90
59855;DHT22;45732;52.850;6.896;2023-09-19T05:35:34;14.40;99.90
59855;DHT22;45732;52.850;6.896;2023-09-19T05:38:05;14.40;99.90
59855;DHT22;45732;52.850;6.896;2023-09-19T05:40:34;14.40;99.90
59855;DHT22;45732;52.850;6.896;2023-09-19T05:43:01;14.30;99.90
59855;DHT22;45732;52.850;6.896;2023-09-19T05:45:27;14.30;99.90
59855;DHT22;45732;52.850;6.896;2023-09-19T05:47:54;14.30;99.90
59855;DHT22;45732;52.850;6.896;2023-09-19T05:50:29;14.30;99.90
59855;DHT22;45732;52.850;6.896;2023-09-19T05:52:57;14.30;99.90
59855;DHT22;45732;52.850;6.896;2023-09-19T05:55:23;14.30;99.90
59855;DHT22;45732;52.850;6.896;2023-09-19T05:57:54;14.30;99.90
59855;DHT22;45732;52.850;6.896;2023-09-19T06:00:20;14.20;99.90
59855;DHT22;45732;52.850;6.896;2023-09-19T06:02:51;14.30;99.90
59855;DHT22;45732;52.850;6.896;2023-09-19T06:05:17;14.20;99.90
59855;DHT22;45732;52.850;6.896;2023-09-19T06:07:43;14.20;99.90
59855;DHT22;45732;52.850;6.896;2023-09-19T06:10:09;14.20;99.90
59855;DHT22;45732;52.850;6.896;2023-09-19T06:12:41;14.10;99.90
59855;DHT22;45732;52.850;6.896;2023-09-19T06:15:09;14.20;99.90
59855;DHT22;45732;52.850;6.896;2023-09-19T06:17:41;14.10;99.90
59855;DHT22;45732;52.850;6.896;2023-09-19T06:20:07;14.10;99.90
59855;DHT22;45732;52.850;6.896;2023-09-19T06:22:41;14.20;99.90
59855;DHT22;45732;52.850;6.896;2023-09-19T06:25:08;14.20;99.90
59855;DHT22;45732;52.850;6.896;2023-09-19T06:27:37;14.20;99.90
59855;DHT22;45732;52.850;6.896;2023-09-19T06:30:04;14.30;99.90
59855;DHT22;45732;52.850;6.896;2023-09-19T06:32:29;14.30;99.90
59855;DHT22;45732;52.850;6.896;2023-09-19T06:34:55;14.30;99.90
59855;DHT22;45732;52.850;6.896;2023-09-19T06:37:21;14.40;99.90
59855;DHT22;45732;52.850;6.896;2023-09-19T06:39:48;14.40;99.90
59855;DHT22;45732;52.850;6.896;2023-09-19T06:42:15;14.50;99.90
59855;DHT22;45732;52.850;6.896;2023-09-19T06:44:43;14.50;99.90
59855;DHT22;45732;52.850;6.896;2023-09-19T06:47:09;14.50;99.90
59855;DHT22;45732;52.850;6.896;2023-09-19T06:49:36;14.40;99.90
59855;DHT22;45732;52.850;6.896;2023-09-19T06:52:02;14.40;99.90
59855;DHT22;45732;52.850;6.896;2023-09-19T06:54:28;14.30;99.90
59855;DHT22;45732;52.850;6.896;2023-09-19T06:56:57;14.30;99.90
59855;DHT22;45732;52.850;6.896;2023-09-19T06:59:25;14.30;99.90
59855;DHT22;45732;52.850;6.896;2023-09-19T07:01:51;14.30;99.90
59855;DHT22;45732;52.850;6.896;2023-09-19T07:04:17;14.30;99.90
59855;DHT22;45732;52.850;6.896;2023-09-19T07:06:49;14.30;99.90
59855;DHT22;45732;52.850;6.896;2023-09-19T07:09:15;14.30;99.90
59855;DHT22;45732;52.850;6.896;2023-09-19T07:11:42;14.40;99.90
59855;DHT22;45732;52.850;6.896;2023-09-19T07:14:08;14.40;99.90
59855;DHT22;45732;52.850;6.896;2023-09-19T07:16:37;14.40;99.90
59855;DHT22;45732;52.850;6.896;2023-09-19T07:19:04;14.50;99.90
59855;DHT22;45732;52.850;6.896;2023-09-19T07:21:30;14.60;99.90
59855;DHT22;45732;52.850;6.896;2023-09-19T07:23:59;14.70;99.90
59855;DHT22;45732;52.850;6.896;2023-09-19T07:26:26;14.70;99.90
59855;DHT22;45732;52.850;6.896;2023-09-19T07:28:53;14.70;99.90
59855;DHT22;45732;52.850;6.896;2023-09-19T07:31:19;14.80;99.90
59855;DHT22;45732;52.850;6.896;2023-09-19T07:33:45;14.80;99.90
59855;DHT22;45732;52.850;6.896;2023-09-19T07:36:11;14.80;99.90
59855;DHT22;45732;52.850;6.896;2023-09-19T07:38:40;14.80;99.90
59855;DHT22;45732;52.850;6.896;2023-09-19T07:41:06;14.80;99.90
59855;DHT22;45732;52.850;6.896;2023-09-19T07:43:32;14.90;99.90
59855;DHT22;45732;52.850;6.896;2023-09-19T07:46:03;15.00;99.90
59855;DHT22;45732;52.850;6.896;2023-09-19T07:48:29;15.00;99.90
59855;DHT22;45732;52.850;6.896;2023-09-19T07:50:55;15.00;99.90
59855;DHT22;45732;52.850;6.896;2023-09-19T07:53:20;15.00;99.90
59855;DHT22;45732;52.850;6.896;2023-09-19T07:55:47;15.10;99.90
59855;DHT22;45732;52.850;6.896;2023-09-19T07:58:14;15.10;99.90
59855;DHT22;45732;52.850;6.896;2023-09-19T08:00:41;15.10;99.90
59855;DHT22;45732;52.850;6.896;2023-09-19T08:03:07;15.10;99.90
59855;DHT22;45732;52.850;6.896;2023-09-19T08:05:34;15.20;99.90
59855;DHT22;45732;52.850;6.896;2023-09-19T08:08:00;15.20;99.90
59855;DHT22;45732;52.850;6.896;2023-09-19T08:10:28;15.20;99.90
59855;DHT22;45732;52.850;6.896;2023-09-19T08:13:00;15.20;99.90
59855;DHT22;45732;52.850;6.896;2023-09-19T08:15:27;15.30;99.90
59855;DHT22;45732;52.850;6.896;2023-09-19T08:17:53;15.30;99.90
59855;DHT22;45732;52.850;6.896;2023-09-19T08:20:19;15.30;99.90
59855;DHT22;45732;52.850;6.896;2023-09-19T08:22:53;15.40;99.90
59855;DHT22;45732;52.850;6.896;2023-09-19T08:25:20;15.50;99.90
59855;DHT22;45732;52.850;6.896;2023-09-19T08:27:48;15.50;99.90
59855;DHT22;45732;52.850;6.896;2023-09-19T08:30:24;15.70;99.90
59855;DHT22;45732;52.850;6.896;2023-09-19T08:33:02;15.70;99.90
59855;DHT22;45732;52.850;6.896;2023-09-19T08:35:30;15.70;99.90
59855;DHT22;45732;52.850;6.896;2023-09-19T08:37:56;15.70;99.90
59855;DHT22;45732;52.850;6.896;2023-09-19T08:40:22;15.70;99.90
59855;DHT22;45732;52.850;6.896;2023-09-19T08:42:49;15.70;99.90
59855;DHT22;45732;52.850;6.896;2023-09-19T08:45:23;15.80;99.90
59855;DHT22;45732;52.850;6.896;2023-09-19T08:53:27;15.90;99.90
59855;DHT22;45732;52.850;6.896;2023-09-19T08:55:59;15.90;99.90
59855;DHT22;45732;52.850;6.896;2023-09-19T08:58:34;15.90;99.90
59855;DHT22;45732;52.850;6.896;2023-09-19T09:01:06;15.90;99.90
59855;DHT22;45732;52.850;6.896;2023-09-19T09:03:33;15.80;99.90
59855;DHT22;45732;52.850;6.896;2023-09-19T09:06:00;15.90;99.90
59855;DHT22;45732;52.850;6.896;2023-09-19T09:08:27;15.90;99.90
59855;DHT22;45732;52.850;6.896;2023-09-19T09:10:56;16.10;99.90
59855;DHT22;45732;52.850;6.896;2023-09-19T09:13:24;16.10;99.90
59855;DHT22;45732;52.850;6.896;2023-09-19T09:15:51;16.10;99.90
59855;DHT22;45732;52.850;6.896;2023-09-19T09:18:18;16.10;99.90
59855;DHT22;45732;52.850;6.896;2023-09-19T09:20:44;16.20;99.90
59855;DHT22;45732;52.850;6.896;2023-09-19T09:23:10;16.20;99.90
59855;DHT22;45732;52.850;6.896;2023-09-19T09:25:55;16.30;99.90
59855;DHT22;45732;52.850;6.896;2023-09-19T09:28:26;16.30;99.90
59855;DHT22;45732;52.850;6.896;2023-09-19T09:30:54;16.30;99.90
59855;DHT22;45732;52.850;6.896;2023-09-19T09:33:20;16.40;99.90
59855;DHT22;45732;52.850;6.896;2023-09-19T09:38:25;16.50;99.90
59855;DHT22;45732;52.850;6.896;2023-09-19T09:40:56;16.60;99.90
59855;DHT22;45732;52.850;6.896;2023-09-19T09:43:39;16.80;99.90
59855;DHT22;45732;52.850;6.896;2023-09-19T09:46:19;16.80;99.90
59855;DHT22;45732;52.850;6.896;2023-09-19T09:49:02;16.90;99.90
59855;DHT22;45732;52.850;6.896;2023-09-19T09:52:05;17.00;99.90
59855;DHT22;45732;52.850;6.896;2023-09-19T09:55:01;17.00;99.90
59855;DHT22;45732;52.850;6.896;2023-09-19T09:57:32;17.10;99.90
59855;DHT22;45732;52.850;6.896;2023-09-19T10:00:00;17.10;99.90
59855;DHT22;45732;52.850;6.896;2023-09-19T10:02:42;17.20;99.90
59855;DHT22;45732;52.850;6.896;2023-09-19T10:05:15;17.30;99.90
59855;DHT22;45732;52.850;6.896;2023-09-19T10:07:51;17.30;99.90
59855;DHT22;45732;52.850;6.896;2023-09-19T10:10:40;17.30;99.90
59855;DHT22;45732;52.850;6.896;2023-09-19T10:13:07;17.30;99.90
59855;DHT22;45732;52.850;6.896;2023-09-19T10:15:38;17.40;99.90
59855;DHT22;45732;52.850;6.896;2023-09-19T10:18:07;17.40;99.90
59855;DHT22;45732;52.850;6.896;2023-09-19T10:20:36;17.40;99.90
59855;DHT22;45732;52.850;6.896;2023-09-19T10:23:08;17.40;99.90
59855;DHT22;45732;52.850;6.896;2023-09-19T10:25:37;17.50;99.90
59855;DHT22;45732;52.850;6.896;2023-09-19T10:28:06;17.50;99.90
59855;DHT22;45732;52.850;6.896;2023-09-19T10:30:47;17.40;99.90
59855;DHT22;45732;52.850;6.896;2023-09-19T10:33:19;17.50;99.90
59855;DHT22;45732;52.850;6.896;2023-09-19T10:35:51;17.40;99.90
59855;DHT22;45732;52.850;6.896;2023-09-19T10:38:23;17.40;99.90
59855;DHT22;45732;52.850;6.896;2023-09-19T10:40:50;17.50;99.90
59855;DHT22;45732;52.850;6.896;2023-09-19T10:43:17;17.40;99.90
59855;DHT22;45732;52.850;6.896;2023-09-19T10:45:47;17.40;99.90
59855;DHT22;45732;52.850;6.896;2023-09-19T10:48:19;17.40;99.90
59855;DHT22;45732;52.850;6.896;2023-09-19T10:51:07;17.40;99.90
59855;DHT22;45732;52.850;6.896;2023-09-19T10:53:47;17.40;99.90
59855;DHT22;45732;52.850;6.896;2023-09-19T10:56:32;17.50;99.90
59855;DHT22;45732;52.850;6.896;2023-09-19T10:59:09;17.60;99.90
59855;DHT22;45732;52.850;6.896;2023-09-19T11:01:46;17.70;99.90
59855;DHT22;45732;52.850;6.896;2023-09-19T11:04:35;17.70;99.90
59855;DHT22;45732;52.850;6.896;2023-09-19T11:09:50;17.70;99.90
59855;DHT22;45732;52.850;6.896;2023-09-19T11:15:07;17.80;99.90
59855;DHT22;45732;52.850;6.896;2023-09-19T11:17:42;17.80;99.90
59855;DHT22;45732;52.850;6.896;2023-09-19T11:30:45;18.00;99.90
59855;DHT22;45732;52.850;6.896;2023-09-19T11:33:27;18.10;99.90
59855;DHT22;45732;52.850;6.896;2023-09-19T11:36:09;18.10;99.90
59855;DHT22;45732;52.850;6.896;2023-09-19T11:39:01;18.10;99.90
59855;DHT22;45732;52.850;6.896;2023-09-19T11:41:37;18.10;99.90
59855;DHT22;45732;52.850;6.896;2023-09-19T11:49:30;18.10;99.90
59855;DHT22;45732;52.850;6.896;2023-09-19T11:51:58;18.20;99.90
59855;DHT22;45732;52.850;6.896;2023-09-19T11:54:27;18.20;99.90
59855;DHT22;45732;52.850;6.896;2023-09-19T11:56:58;18.30;99.90
59855;DHT22;45732;52.850;6.896;2023-09-19T11:59:28;18.30;99.90
59855;DHT22;45732;52.850;6.896;2023-09-19T12:02:01;18.40;99.90
59855;DHT22;45732;52.850;6.896;2023-09-19T12:04:39;18.40;99.90
59855;DHT22;45732;52.850;6.896;2023-09-19T12:09:43;18.40;99.90
59855;DHT22;45732;52.850;6.896;2023-09-19T12:12:19;18.40;99.90
59855;DHT22;45732;52.850;6.896;2023-09-19T12:14:51;18.40;99.90
59855;DHT22;45732;52.850;6.896;2023-09-19T12:17:18;18.30;99.90
59855;DHT22;45732;52.850;6.896;2023-09-19T12:19:56;18.20;99.90
59855;DHT22;45732;52.850;6.896;2023-09-19T12:22:22;18.20;99.90
59855;DHT22;45732;52.850;6.896;2023-09-19T12:24:48;18.20;99.90
59855;DHT22;45732;52.850;6.896;2023-09-19T12:27:16;18.20;99.90
59855;DHT22;45732;52.850;6.896;2023-09-19T12:32:08;18.30;99.90
59855;DHT22;45732;52.850;6.896;2023-09-19T12:34:34;18.30;99.90
59855;DHT22;45732;52.850;6.896;2023-09-19T12:37:07;18.40;99.90
59855;DHT22;45732;52.850;6.896;2023-09-19T12:39:44;18.30;99.90
59855;DHT22;45732;52.850;6.896;2023-09-19T12:42:24;18.40;99.90
59855;DHT22;45732;52.850;6.896;2023-09-19T12:44:55;18.40;99.90
59855;DHT22;45732;52.850;6.896;2023-09-19T12:47:23;18.30;99.90
59855;DHT22;45732;52.850;6.896;2023-09-19T12:52:39;18.30;99.90
59855;DHT22;45732;52.850;6.896;2023-09-19T12:55:05;18.30;99.90
59855;DHT22;45732;52.850;6.896;2023-09-19T12:57:36;18.30;99.90
59855;DHT22;45732;52.850;6.896;2023-09-19T13:00:03;18.30;99.90
59855;DHT22;45732;52.850;6.896;2023-09-19T13:02:31;18.30;99.90
59855;DHT22;45732;52.850;6.896;2023-09-19T13:04:58;18.30;99.90
59855;DHT22;45732;52.850;6.896;2023-09-19T13:07:45;18.30;99.90
59855;DHT22;45732;52.850;6.896;2023-09-19T13:10:13;18.30;99.90
59855;DHT22;45732;52.850;6.896;2023-09-19T13:12:43;18.40;99.90
59855;DHT22;45732;52.850;6.896;2023-09-19T13:15:14;18.40;99.90
59855;DHT22;45732;52.850;6.896;2023-09-19T13:17:47;18.40;99.90
59855;DHT22;45732;52.850;6.896;2023-09-19T13:20:27;18.40;99.90
59855;DHT22;45732;52.850;6.896;2023-09-19T13:22:54;18.40;99.90
59855;DHT22;45732;52.850;6.896;2023-09-19T13:25:25;18.30;99.90
59855;DHT22;45732;52.850;6.896;2023-09-19T13:27:54;18.30;99.90
59855;DHT22;45732;52.850;6.896;2023-09-19T13:30:27;18.30;99.90
59855;DHT22;45732;52.850;6.896;2023-09-19T13:33:09;18.30;99.90
59855;DHT22;45732;52.850;6.896;2023-09-19T13:35:36;18.30;99.90
59855;DHT22;45732;52.850;6.896;2023-09-19T13:38:07;18.30;99.90
59855;DHT22;45732;52.850;6.896;2023-09-19T13:40:38;18.30;99.90
59855;DHT22;45732;52.850;6.896;2023-09-19T13:43:07;18.30;99.90
59855;DHT22;45732;52.850;6.896;2023-09-19T13:45:34;18.30;99.90
59855;DHT22;45732;52.850;6.896;2023-09-19T13:47:59;18.30;99.90
59855;DHT22;45732;52.850;6.896;2023-09-19T13:50:25;18.20;99.90
59855;DHT22;45732;52.850;6.896;2023-09-19T13:52:54;18.20;99.90
59855;DHT22;45732;52.850;6.896;2023-09-19T13:55:20;18.20;99.90
59855;DHT22;45732;52.850;6.896;2023-09-19T13:57:47;18.20;99.90
59855;DHT22;45732;52.850;6.896;2023-09-19T14:00:16;18.20;99.90
59855;DHT22;45732;52.850;6.896;2023-09-19T14:02:42;18.20;99.90
59855;DHT22;45732;52.850;6.896;2023-09-19T14:05:12;18.20;99.90
59855;DHT22;45732;52.850;6.896;2023-09-19T14:07:45;18.20;99.90
59855;DHT22;45732;52.850;6.896;2023-09-19T14:10:13;18.30;99.90
59855;DHT22;45732;52.850;6.896;2023-09-19T14:12:39;18.30;99.90
59855;DHT22;45732;52.850;6.896;2023-09-19T14:15:10;18.40;99.90
59855;DHT22;45732;52.850;6.896;2023-09-19T14:17:37;18.40;99.90
59855;DHT22;45732;52.850;6.896;2023-09-19T14:20:03;18.50;99.90
59855;DHT22;45732;52.850;6.896;2023-09-19T14:22:31;18.50;99.90
59855;DHT22;45732;52.850;6.896;2023-09-19T14:24:56;18.50;99.90
59855;DHT22;45732;52.850;6.896;2023-09-19T14:27:22;18.60;99.90
59855;DHT22;45732;52.850;6.896;2023-09-19T14:29:48;18.60;99.90
59855;DHT22;45732;52.850;6.896;2023-09-19T14:32:14;18.60;99.90
59855;DHT22;45732;52.850;6.896;2023-09-19T14:34:39;18.60;99.90
59855;DHT22;45732;52.850;6.896;2023-09-19T14:37:08;18.70;99.90
59855;DHT22;45732;52.850;6.896;2023-09-19T14:39:34;18.70;99.90
59855;DHT22;45732;52.850;6.896;2023-09-19T14:42:00;18.70;99.90
59855;DHT22;45732;52.850;6.896;2023-09-19T14:44:25;18.70;99.90
59855;DHT22;45732;52.850;6.896;2023-09-19T14:46:51;18.60;99.90
59855;DHT22;45732;52.850;6.896;2023-09-19T14:49:17;18.70;99.90
59855;DHT22;45732;52.850;6.896;2023-09-19T14:51:43;18.60;99.90
59855;DHT22;45732;52.850;6.896;2023-09-19T14:54:10;18.60;99.90
59855;DHT22;45732;52.850;6.896;2023-09-19T14:56:36;18.60;99.90
59855;DHT22;45732;52.850;6.896;2023-09-19T14:59:01;18.60;99.90
59855;DHT22;45732;52.850;6.896;2023-09-19T15:01:28;18.60;99.90
59855;DHT22;45732;52.850;6.896;2023-09-19T15:03:54;18.60;99.90
59855;DHT22;45732;52.850;6.896;2023-09-19T15:06:21;18.50;99.90
59855;DHT22;45732;52.850;6.896;2023-09-19T15:08:47;18.60;99.90
59855;DHT22;45732;52.850;6.896;2023-09-19T15:11:14;18.50;99.90
59855;DHT22;45732;52.850;6.896;2023-09-19T15:13:42;18.50;99.90
59855;DHT22;45732;52.850;6.896;2023-09-19T15:16:09;18.50;99.90
59855;DHT22;45732;52.850;6.896;2023-09-19T15:21:10;18.50;99.90
59855;DHT22;45732;52.850;6.896;2023-09-19T15:23:37;18.50;99.90
59855;DHT22;45732;52.850;6.896;2023-09-19T15:26:04;18.50;99.90
59855;DHT22;45732;52.850;6.896;2023-09-19T15:28:31;18.50;99.90
59855;DHT22;45732;52.850;6.896;2023-09-19T15:31:01;18.50;99.90
59855;DHT22;45732;52.850;6.896;2023-09-19T15:33:27;18.50;99.90
59855;DHT22;45732;52.850;6.896;2023-09-19T15:36:10;18.50;99.90
59855;DHT22;45732;52.850;6.896;2023-09-19T15:39:05;18.50;99.90
59855;DHT22;45732;52.850;6.896;2023-09-19T15:41:36;18.50;99.90
59855;DHT22;45732;52.850;6.896;2023-09-19T15:44:03;18.40;99.90
59855;DHT22;45732;52.850;6.896;2023-09-19T15:46:31;18.40;99.90
59855;DHT22;45732;52.850;6.896;2023-09-19T15:48:58;18.40;99.90
59855;DHT22;45732;52.850;6.896;2023-09-19T15:51:26;18.40;99.90
59855;DHT22;45732;52.850;6.896;2023-09-19T15:53:53;18.40;99.90
59855;DHT22;45732;52.850;6.896;2023-09-19T15:56:20;18.40;99.90
59855;DHT22;45732;52.850;6.896;2023-09-19T15:58:48;18.40;99.90
59855;DHT22;45732;52.850;6.896;2023-09-19T16:01:14;18.40;99.90
59855;DHT22;45732;52.850;6.896;2023-09-19T16:03:43;18.40;99.90
59855;DHT22;45732;52.850;6.896;2023-09-19T16:06:13;18.40;99.90
59855;DHT22;45732;52.850;6.896;2023-09-19T16:08:43;18.40;99.90
59855;DHT22;45732;52.850;6.896;2023-09-19T16:11:10;18.40;99.90
59855;DHT22;45732;52.850;6.896;2023-09-19T16:13:40;18.40;99.90
59855;DHT22;45732;52.850;6.896;2023-09-19T16:16:12;18.30;99.90
59855;DHT22;45732;52.850;6.896;2023-09-19T16:21:13;18.30;99.90
59855;DHT22;45732;52.850;6.896;2023-09-19T16:23:39;18.30;99.90
59855;DHT22;45732;52.850;6.896;2023-09-19T16:26:06;18.30;99.90
59855;DHT22;45732;52.850;6.896;2023-09-19T16:28:35;18.30;99.90
59855;DHT22;45732;52.850;6.896;2023-09-19T16:31:06;18.30;99.90
59855;DHT22;45732;52.850;6.896;2023-09-19T16:33:33;18.30;99.90
59855;DHT22;45732;52.850;6.896;2023-09-19T16:36:00;18.30;99.90
59855;DHT22;45732;52.850;6.896;2023-09-19T16:38:27;18.40;99.90